createdAt,value
2019-05-29T00:02:14.949Z,2.03
2019-05-29T00:04:44.952Z,1.60
2019-05-29T00:07:15.012Z,3.27
2019-05-29T00:09:44.933Z,1.87
2019-05-29T00:12:19.312Z,3.27
2019-05-29T00:14:46.515Z,2.70
2019-05-29T00:17:16.454Z,2.07
2019-05-29T00:19:46.322Z,2.10
2019-05-29T00:22:16.244Z,1.90
2019-05-29T00:24:46.175Z,1.80
2019-05-29T00:27:16.180Z,2.33
2019-05-29T00:29:46.182Z,2.40
2019-05-29T00:32:17.135Z,3.80
2019-05-29T00:34:47.127Z,2.40
2019-05-29T00:37:17.135Z,1.77
2019-05-29T00:39:47.070Z,2.20
2019-05-29T00:42:17.507Z,3.33
2019-05-29T00:44:47.502Z,2.70
2019-05-29T00:47:17.720Z,2.50
2019-05-29T00:49:47.823Z,2.20
2019-05-29T00:52:18.369Z,3.83
2019-05-29T00:54:48.339Z,3.10
2019-05-29T00:57:19.046Z,2.90
2019-05-29T00:59:49.110Z,1.90
2019-05-29T01:02:19.794Z,1.93
2019-05-29T01:04:50.088Z,2.27
2019-05-29T01:07:20.517Z,3.57
2019-05-29T01:09:50.535Z,2.40
2019-05-29T01:12:21.312Z,2.50
2019-05-29T01:14:51.284Z,1.87
2019-05-29T01:17:21.840Z,1.60
2019-05-29T01:19:51.851Z,1.70
2019-05-29T01:22:22.441Z,1.70
2019-05-29T01:24:52.456Z,1.97
2019-05-29T01:27:23.126Z,1.67
2019-05-29T01:29:53.438Z,1.80
2019-05-29T01:32:23.730Z,1.90
2019-05-29T01:34:53.941Z,1.70
2019-05-29T01:37:24.368Z,1.60
2019-05-29T01:39:54.319Z,1.50
2019-05-29T01:42:24.321Z,1.67
2019-05-29T01:45:07.021Z,1.80
2019-05-29T01:47:25.826Z,1.70
2019-05-29T01:49:55.762Z,2.30
2019-05-29T01:52:25.681Z,1.97
2019-05-29T01:54:55.682Z,1.87
2019-05-29T01:57:25.676Z,2.17
2019-05-29T01:59:55.679Z,2.20
2019-05-29T02:02:25.667Z,2.00
2019-05-29T02:04:55.686Z,2.10
2019-05-29T02:07:25.680Z,1.70
2019-05-29T02:09:55.559Z,1.47
2019-05-29T02:12:26.407Z,2.80
2019-05-29T02:14:56.479Z,2.00
2019-05-29T02:17:26.489Z,1.50
2019-05-29T02:19:56.441Z,1.63
2019-05-29T02:22:27.119Z,1.90
2019-05-29T02:24:56.984Z,2.93
2019-05-29T02:27:27.709Z,2.13
2019-05-29T02:29:57.982Z,1.70
2019-05-29T02:32:28.129Z,1.97
2019-05-29T02:34:58.058Z,1.70
2019-05-29T02:37:28.922Z,1.60
2019-05-29T02:39:59.117Z,2.07
2019-05-29T02:42:29.248Z,1.40
2019-05-29T02:44:59.306Z,1.40
2019-05-29T02:47:30.265Z,1.40
2019-05-29T02:50:00.474Z,1.60
2019-05-29T02:52:30.822Z,1.90
2019-05-29T02:55:01.135Z,1.80
2019-05-29T02:57:31.159Z,1.73
2019-05-29T03:00:01.319Z,2.20
2019-05-29T03:02:32.124Z,1.37
2019-05-29T03:05:02.249Z,2.57
2019-05-29T03:07:32.728Z,2.83
2019-05-29T03:10:03.163Z,1.57
2019-05-29T03:12:33.686Z,1.53
2019-05-29T03:15:04.512Z,2.20
2019-05-29T03:17:34.447Z,2.23
2019-05-29T03:20:04.572Z,2.20
2019-05-29T03:22:35.295Z,2.17
2019-05-29T03:25:05.639Z,2.63
2019-05-29T03:27:35.565Z,1.70
2019-05-29T03:30:05.908Z,1.70
2019-05-29T03:32:43.581Z,1.63
2019-05-29T03:35:07.821Z,1.77
2019-05-29T03:37:38.725Z,3.60
2019-05-29T03:40:09.012Z,2.10
2019-05-29T03:42:39.338Z,1.60
2019-05-29T03:45:09.960Z,1.70
2019-05-29T03:47:39.887Z,1.70
2019-05-29T03:50:10.302Z,1.70
2019-05-29T03:52:40.407Z,2.10
2019-05-29T03:55:10.514Z,2.67
2019-05-29T03:57:40.534Z,3.03
2019-05-29T04:00:10.696Z,2.03
2019-05-29T04:02:40.560Z,2.33
2019-05-29T04:05:10.775Z,3.20
2019-05-29T04:07:40.805Z,2.60
2019-05-29T04:10:11.716Z,1.67
2019-05-29T04:12:41.724Z,2.20
2019-05-29T04:15:11.851Z,1.60
2019-05-29T04:17:43.048Z,1.43
2019-05-29T04:20:13.288Z,3.30
2019-05-29T04:22:45.329Z,4.03
2019-05-29T04:25:15.455Z,2.33
2019-05-29T04:27:48.424Z,1.67
2019-05-29T04:30:18.394Z,2.10
2019-05-29T04:32:48.394Z,2.30
2019-05-29T04:35:18.366Z,2.30
2019-05-29T04:37:48.536Z,2.63
2019-05-29T04:40:18.571Z,1.77
2019-05-29T04:42:48.500Z,1.50
2019-05-29T04:45:18.737Z,1.87
2019-05-29T04:47:48.618Z,1.77
2019-05-29T04:50:18.752Z,1.70
2019-05-29T04:52:48.671Z,1.70
2019-05-29T04:55:18.738Z,1.77
2019-05-29T04:57:50.974Z,1.80
2019-05-29T05:00:20.642Z,2.10
2019-05-29T05:02:50.563Z,1.80
2019-05-29T05:05:20.607Z,1.87
2019-05-29T05:07:50.692Z,2.10
2019-05-29T05:10:40.611Z,1.80
2019-05-29T05:13:10.104Z,1.80
2019-05-29T05:15:40.389Z,1.80
2019-05-29T05:18:10.367Z,2.60
2019-05-29T05:20:40.521Z,4.40
2019-05-29T05:23:10.955Z,2.77
2019-05-29T05:25:41.166Z,2.93
2019-05-29T05:28:11.185Z,4.17
2019-05-29T05:30:41.227Z,4.63
2019-05-29T05:33:11.178Z,3.27
2019-05-29T05:35:41.206Z,3.80
2019-05-29T05:38:11.278Z,3.83
2019-05-29T05:40:43.170Z,5.40
2019-05-29T05:43:23.559Z,4.67
2019-05-29T05:45:44.621Z,5.47
2019-05-29T05:48:14.570Z,4.87
2019-05-29T05:50:44.583Z,5.73
2019-05-29T05:53:14.586Z,5.77
2019-05-29T05:55:44.830Z,5.77
2019-05-29T05:58:14.898Z,5.53
2019-05-29T06:00:44.897Z,5.23
2019-05-29T06:03:15.107Z,6.40
2019-05-29T06:05:45.100Z,5.70
2019-05-29T06:08:15.134Z,5.70
2019-05-29T06:10:45.143Z,4.60
2019-05-29T06:13:15.158Z,5.37
2019-05-29T06:15:45.053Z,5.17
2019-05-29T06:18:21.109Z,4.87
2019-05-29T06:20:46.919Z,4.10
2019-05-29T06:23:17.876Z,5.63
2019-05-29T06:25:48.172Z,5.13
2019-05-29T06:28:18.315Z,5.47
2019-05-29T06:30:48.479Z,5.03
2019-05-29T06:33:18.503Z,6.00
2019-05-29T06:35:48.636Z,4.73
2019-05-29T06:38:18.654Z,4.90
2019-05-29T06:40:48.671Z,5.97
2019-05-29T06:43:23.250Z,6.10
2019-05-29T06:45:54.667Z,6.40
2019-05-29T06:48:41.325Z,4.57
2019-05-29T06:50:58.556Z,5.43
2019-05-29T06:53:28.580Z,5.10
2019-05-29T06:56:00.323Z,4.67
2019-05-29T06:58:30.565Z,5.70
2019-05-29T07:01:00.627Z,5.87
2019-05-29T07:03:30.588Z,5.80
2019-05-29T07:06:00.602Z,5.10
2019-05-29T07:08:38.897Z,6.70
2019-05-29T07:11:02.308Z,6.30
2019-05-29T07:13:34.917Z,8.47
2019-05-29T07:16:04.016Z,6.20
2019-05-29T07:18:34.071Z,6.10
2019-05-29T07:21:04.092Z,5.33
2019-05-29T07:23:34.088Z,7.03
2019-05-29T07:26:04.044Z,4.93
2019-05-29T07:28:34.078Z,5.27
2019-05-29T07:31:04.320Z,3.67
2019-05-29T07:33:34.372Z,3.23
2019-05-29T07:36:04.453Z,4.47
2019-05-29T07:38:34.392Z,4.23
2019-05-29T07:41:04.407Z,4.40
2019-05-29T07:43:34.423Z,3.87
2019-05-29T07:46:04.552Z,4.67
2019-05-29T07:48:34.570Z,3.53
2019-05-29T07:51:07.280Z,4.83
2019-05-29T07:53:36.375Z,5.77
2019-05-29T07:56:21.401Z,4.93
2019-05-29T07:58:38.684Z,4.80
2019-05-29T08:01:13.361Z,4.20
2019-05-29T08:03:41.231Z,3.60
2019-05-29T08:06:11.396Z,4.43
2019-05-29T08:08:41.488Z,3.77
2019-05-29T08:11:11.495Z,3.50
2019-05-29T08:13:41.583Z,3.37
2019-05-29T08:16:12.026Z,3.30
2019-05-29T08:18:48.216Z,3.27
2019-05-29T08:21:13.735Z,3.20
2019-05-29T08:23:44.358Z,3.20
2019-05-29T08:26:14.426Z,4.30
2019-05-29T08:28:46.751Z,4.27
2019-05-29T08:31:16.748Z,3.87
2019-05-29T08:33:46.838Z,3.37
2019-05-29T08:36:16.884Z,3.70
2019-05-29T08:38:47.371Z,2.90
2019-05-29T08:41:17.459Z,3.60
2019-05-29T08:43:48.443Z,3.80
2019-05-29T08:46:18.581Z,3.50
2019-05-29T08:48:48.487Z,3.43
2019-05-29T08:51:18.537Z,3.00
2019-05-29T08:53:48.796Z,3.37
2019-05-29T08:56:19.005Z,3.13
2019-05-29T08:58:48.985Z,2.97
2019-05-29T09:01:19.091Z,3.30
2019-05-29T09:03:49.094Z,3.30
2019-05-29T09:06:19.244Z,3.53
2019-05-29T09:08:50.495Z,3.60
2019-05-29T09:11:21.032Z,3.73
2019-05-29T09:13:51.026Z,4.17
2019-05-29T09:16:21.338Z,3.33
2019-05-29T09:18:51.891Z,3.80
2019-05-29T09:21:22.890Z,3.17
2019-05-29T09:23:53.586Z,3.20
2019-05-29T09:26:25.857Z,3.47
2019-05-29T09:28:55.278Z,3.50
2019-05-29T09:31:25.304Z,3.10
2019-05-29T09:33:55.239Z,3.23
2019-05-29T09:36:25.296Z,3.23
2019-05-29T09:38:55.334Z,3.43
2019-05-29T09:41:25.691Z,3.67
2019-05-29T09:43:59.519Z,4.00
2019-05-29T09:46:27.569Z,4.17
2019-05-29T09:49:01.128Z,4.50
2019-05-29T09:51:29.295Z,4.40
2019-05-29T09:54:01.306Z,4.43
2019-05-29T09:56:31.047Z,4.10
2019-05-29T09:59:01.833Z,3.90
2019-05-29T10:01:32.819Z,4.60
2019-05-29T10:04:05.821Z,4.30
2019-05-29T10:06:34.632Z,4.07
2019-05-29T10:09:07.159Z,3.97
2019-05-29T10:11:37.198Z,4.20
2019-05-29T10:14:07.231Z,4.67
2019-05-29T10:16:37.288Z,4.03
2019-05-29T10:19:07.330Z,3.93
2019-05-29T10:21:40.557Z,4.20
2019-05-29T10:24:09.579Z,4.10
2019-05-29T10:26:39.836Z,3.97
2019-05-29T10:29:10.183Z,3.03
2019-05-29T10:31:40.196Z,2.70
2019-05-29T10:34:10.246Z,2.77
2019-05-29T10:36:40.280Z,3.00
2019-05-29T10:39:12.729Z,3.17
2019-05-29T10:41:42.686Z,2.80
2019-05-29T10:44:13.163Z,3.20
2019-05-29T10:46:45.974Z,4.50
2019-05-29T10:49:15.113Z,4.00
2019-05-29T10:52:01.570Z,3.90
2019-05-29T10:54:17.003Z,4.30
2019-05-29T10:56:48.635Z,4.03
2019-05-29T10:59:18.949Z,3.93
2019-05-29T11:01:49.265Z,3.60
2019-05-29T11:04:19.133Z,3.37
2019-05-29T11:06:50.163Z,3.20
2019-05-29T11:09:20.380Z,3.03
2019-05-29T11:11:50.742Z,2.90
2019-05-29T11:14:20.817Z,2.97
2019-05-29T11:16:50.971Z,2.90
2019-05-29T11:19:20.887Z,3.00
2019-05-29T11:21:51.708Z,3.20
2019-05-29T11:24:21.874Z,2.77
2019-05-29T11:26:52.549Z,3.10
2019-05-29T11:29:22.695Z,2.93
2019-05-29T11:31:53.432Z,2.10
2019-05-29T11:34:23.875Z,2.70
2019-05-29T11:36:54.242Z,2.40
2019-05-29T11:39:24.436Z,2.70
2019-05-29T11:41:54.763Z,2.60
2019-05-29T11:44:24.878Z,3.47
2019-05-29T11:46:56.061Z,4.13
2019-05-29T11:49:26.364Z,4.20
2019-05-29T11:52:19.672Z,4.47
2019-05-29T11:54:27.922Z,4.40
2019-05-29T11:56:59.180Z,3.93
2019-05-29T11:59:29.374Z,3.90
2019-05-29T12:02:01.017Z,3.37
2019-05-29T12:04:31.259Z,2.67
2019-05-29T12:07:01.553Z,3.13
2019-05-29T12:09:33.611Z,3.20
2019-05-29T12:12:03.387Z,3.17
2019-05-29T12:14:33.362Z,3.07
2019-05-29T12:17:03.450Z,3.40
2019-05-29T12:19:33.575Z,3.60
2019-05-29T12:22:03.664Z,3.90
2019-05-29T12:24:33.743Z,3.97
2019-05-29T12:27:03.811Z,3.90
2019-05-29T12:29:33.872Z,3.50
2019-05-29T12:32:08.941Z,2.60
2019-05-29T12:34:35.610Z,2.97
2019-05-29T12:37:05.577Z,3.10
2019-05-29T12:39:35.670Z,2.60
2019-05-29T12:42:05.864Z,2.63
2019-05-29T12:44:35.765Z,2.70
2019-05-29T12:47:05.886Z,2.90
2019-05-29T12:49:35.899Z,2.77
2019-05-29T12:52:07.634Z,3.07
2019-05-29T12:54:37.764Z,3.53
2019-05-29T12:57:07.955Z,2.93
2019-05-29T12:59:42.749Z,2.90
2019-05-29T13:02:13.043Z,4.13
2019-05-29T13:05:06.128Z,4.60
2019-05-29T13:07:14.866Z,4.30
2019-05-29T13:09:45.003Z,3.87
2019-05-29T13:12:15.125Z,3.97
2019-05-29T13:14:45.177Z,3.80
2019-05-29T13:17:17.671Z,4.50
2019-05-29T13:19:47.933Z,4.47
2019-05-29T13:22:17.935Z,4.23
2019-05-29T13:24:48.067Z,3.43
2019-05-29T13:27:18.080Z,3.53
2019-05-29T13:29:48.116Z,3.77
2019-05-29T13:32:18.174Z,4.60
2019-05-29T13:34:48.048Z,4.00
2019-05-29T13:37:18.859Z,4.83
2019-05-29T13:39:48.992Z,4.60
2019-05-29T13:42:19.188Z,4.80
2019-05-29T13:44:49.494Z,5.13
2019-05-29T13:47:19.609Z,5.43
2019-05-29T13:49:49.896Z,5.20
2019-05-29T13:52:20.048Z,4.60
2019-05-29T13:54:49.999Z,4.23
2019-05-29T13:57:20.391Z,4.30
2019-05-29T13:59:50.340Z,3.87
2019-05-29T14:02:20.736Z,3.70
2019-05-29T14:04:50.624Z,3.80
2019-05-29T14:07:20.712Z,3.70
2019-05-29T14:09:50.596Z,3.70
2019-05-29T14:12:20.560Z,3.50
2019-05-29T14:14:50.489Z,2.70
2019-05-29T14:17:20.793Z,2.13
2019-05-29T14:19:50.843Z,2.50
2019-05-29T14:22:20.733Z,2.03
2019-05-29T14:24:50.788Z,1.80
2019-05-29T14:27:20.943Z,2.10
2019-05-29T14:29:51.004Z,1.80
2019-05-29T14:32:21.171Z,1.83
2019-05-29T14:34:51.305Z,1.87
2019-05-29T14:37:21.441Z,1.60
2019-05-29T14:39:51.430Z,1.60
2019-05-29T14:42:21.484Z,1.50
2019-05-29T14:44:51.509Z,1.20
2019-05-29T14:47:21.471Z,1.17
2019-05-29T14:49:51.644Z,1.20
2019-05-29T14:52:21.732Z,1.00
2019-05-29T14:54:54.215Z,1.40
2019-05-29T14:57:26.243Z,1.00
2019-05-29T14:59:56.267Z,1.10
2019-05-29T15:02:26.489Z,1.50
2019-05-29T15:04:56.543Z,1.40
2019-05-29T15:07:26.637Z,1.20
2019-05-29T15:09:58.768Z,1.00
2019-05-29T15:12:28.906Z,1.30
2019-05-29T15:14:58.963Z,1.00
2019-05-29T15:17:29.095Z,1.00
2019-05-29T15:19:59.146Z,0.80
2019-05-29T15:22:32.325Z,0.90
2019-05-29T15:25:13.436Z,0.80
2019-05-29T15:27:37.291Z,0.80
2019-05-29T15:30:08.786Z,0.83
2019-05-29T15:32:38.938Z,0.77
2019-05-29T15:35:13.789Z,0.90
2019-05-29T15:37:41.218Z,0.70
2019-05-29T15:40:12.854Z,1.10
2019-05-29T15:42:43.113Z,0.87
2019-05-29T15:45:14.197Z,0.90
2019-05-29T15:47:44.451Z,0.90
2019-05-29T15:50:16.081Z,1.03
2019-05-29T15:52:46.354Z,0.97
2019-05-29T15:55:28.258Z,1.00
2019-05-29T15:57:48.367Z,1.03
2019-05-29T16:00:18.859Z,0.93
2019-05-29T16:02:49.901Z,1.30
2019-05-29T16:05:20.357Z,1.00
2019-05-29T16:07:50.439Z,0.90
2019-05-29T16:10:21.223Z,0.90
2019-05-29T16:12:51.338Z,1.33
2019-05-29T16:15:21.468Z,1.40
2019-05-29T16:17:51.642Z,1.10
2019-05-29T16:20:22.843Z,1.20
2019-05-29T16:22:53.122Z,1.30
2019-05-29T16:25:37.823Z,1.20
2019-05-29T16:27:54.870Z,1.20
2019-05-29T16:30:25.274Z,1.07
2019-05-29T16:32:55.311Z,1.50
2019-05-29T16:35:25.663Z,1.17
2019-05-29T16:37:55.692Z,1.40
2019-05-29T16:40:26.162Z,1.27
2019-05-29T16:42:56.297Z,1.20
2019-05-29T16:45:28.495Z,1.40
2019-05-29T16:47:58.572Z,1.53
2019-05-29T16:50:28.955Z,1.30
2019-05-29T16:52:58.979Z,1.30
2019-05-29T16:55:29.084Z,1.13
2019-05-29T16:57:59.231Z,1.50
2019-05-29T17:00:29.318Z,1.10
2019-05-29T17:02:59.251Z,1.30
2019-05-29T17:05:29.263Z,1.20
2019-05-29T17:07:59.350Z,1.50
2019-05-29T17:10:36.455Z,1.40
2019-05-29T17:13:07.238Z,0.90
2019-05-29T17:15:38.810Z,1.03
2019-05-29T17:18:08.829Z,1.13
2019-05-29T17:20:40.946Z,1.00
2019-05-29T17:23:11.196Z,1.00
2019-05-29T17:25:41.256Z,1.00
2019-05-29T17:28:11.476Z,1.03
2019-05-29T17:30:41.615Z,0.87
2019-05-29T17:33:11.672Z,0.80
2019-05-29T17:35:41.629Z,0.93
2019-05-29T17:38:11.647Z,1.00
2019-05-29T17:40:41.790Z,1.00
2019-05-29T17:43:11.853Z,1.27
2019-05-29T17:45:41.896Z,1.10
2019-05-29T17:48:11.863Z,1.20
2019-05-29T17:50:42.018Z,1.30
2019-05-29T17:53:12.104Z,1.30
2019-05-29T17:55:42.036Z,1.20
2019-05-29T17:58:11.980Z,0.93
2019-05-29T18:00:42.028Z,1.40
2019-05-29T18:03:12.053Z,1.17
2019-05-29T18:05:42.080Z,1.00
2019-05-29T18:08:12.008Z,1.40
2019-05-29T18:10:42.002Z,1.20
2019-05-29T18:13:11.921Z,1.30
2019-05-29T18:15:41.997Z,1.70
2019-05-29T18:18:12.055Z,1.40
2019-05-29T18:20:44.142Z,1.40
2019-05-29T18:23:14.152Z,1.10
2019-05-29T18:25:44.188Z,1.50
2019-05-29T18:28:14.190Z,1.23
2019-05-29T18:30:44.193Z,1.40
2019-05-29T18:33:14.162Z,1.77
2019-05-29T18:35:44.961Z,1.40
2019-05-29T18:38:14.965Z,1.20
2019-05-29T18:40:44.894Z,1.30
2019-05-29T18:43:14.818Z,1.40
2019-05-29T18:45:44.830Z,1.20
2019-05-29T18:48:14.753Z,1.20
2019-05-29T18:50:44.770Z,1.40
2019-05-29T18:53:14.626Z,1.10
2019-05-29T18:55:44.664Z,1.13
2019-05-29T18:58:14.568Z,1.20
2019-05-29T19:00:44.503Z,1.20
2019-05-29T19:03:14.510Z,1.03
2019-05-29T19:05:44.519Z,0.80
2019-05-29T19:08:14.558Z,0.80
2019-05-29T19:10:44.603Z,1.10
2019-05-29T19:13:14.582Z,0.80
2019-05-29T19:15:44.663Z,1.00
2019-05-29T19:18:14.750Z,0.90
2019-05-29T19:20:44.598Z,1.00
2019-05-29T19:23:14.509Z,0.90
2019-05-29T19:25:44.440Z,0.93
2019-05-29T19:28:14.410Z,0.80
2019-05-29T19:30:44.361Z,1.03
2019-05-29T19:33:14.388Z,1.00
2019-05-29T19:35:44.312Z,1.10
2019-05-29T19:38:14.251Z,0.90
2019-05-29T19:40:44.164Z,0.83
2019-05-29T19:43:14.097Z,0.90
2019-05-29T19:45:44.042Z,0.87
2019-05-29T19:48:13.895Z,0.63
2019-05-29T19:50:43.766Z,1.20
2019-05-29T19:53:13.643Z,1.00
2019-05-29T19:55:43.658Z,1.20
2019-05-29T19:58:13.491Z,1.00
2019-05-29T20:00:43.336Z,1.13
2019-05-29T20:03:13.275Z,0.70
2019-05-29T20:05:43.204Z,0.80
2019-05-29T20:08:13.158Z,1.03
2019-05-29T20:10:43.060Z,1.00
2019-05-29T20:13:13.003Z,1.00
2019-05-29T20:15:42.853Z,1.03
2019-05-29T20:18:12.772Z,1.10
2019-05-29T20:20:42.628Z,1.00
2019-05-29T20:23:12.555Z,1.33
2019-05-29T20:25:42.463Z,1.07
2019-05-29T20:28:13.807Z,0.90
2019-05-29T20:30:43.727Z,1.10
2019-05-29T20:33:13.659Z,1.10
2019-05-29T20:35:43.678Z,1.27
2019-05-29T20:38:13.583Z,1.20
2019-05-29T20:40:43.635Z,1.20
2019-05-29T20:43:13.895Z,1.10
2019-05-29T20:45:43.888Z,1.10
2019-05-29T20:48:13.926Z,1.10
2019-05-29T20:50:43.867Z,1.03
2019-05-29T20:53:13.782Z,1.20
2019-05-29T20:55:43.750Z,1.17
2019-05-29T20:58:23.953Z,1.60
2019-05-29T21:00:45.452Z,1.50
2019-05-29T21:03:15.398Z,1.60
2019-05-29T21:05:45.244Z,1.20
2019-05-29T21:08:15.104Z,1.20
2019-05-29T21:10:45.099Z,1.63
2019-05-29T21:13:15.111Z,1.47
2019-05-29T21:15:45.036Z,1.27
2019-05-29T21:18:14.958Z,1.30
2019-05-29T21:20:44.899Z,1.20
2019-05-29T21:23:14.855Z,1.30
2019-05-29T21:25:44.999Z,1.30
2019-05-29T21:28:14.937Z,1.47
2019-05-29T21:30:45.746Z,1.40
2019-05-29T21:33:15.747Z,1.30
2019-05-29T21:35:46.383Z,1.30
2019-05-29T21:38:16.369Z,1.70
2019-05-29T21:40:46.764Z,1.50
2019-05-29T21:43:16.819Z,1.80
2019-05-29T21:45:47.290Z,1.43
2019-05-29T21:48:17.306Z,1.33
2019-05-29T21:50:47.473Z,1.40
2019-05-29T21:53:17.407Z,1.40
2019-05-29T21:55:47.801Z,1.60
2019-05-29T21:58:17.872Z,1.63
2019-05-29T22:00:50.283Z,1.33
2019-05-29T22:03:20.430Z,1.07
2019-05-29T22:05:50.536Z,1.43
2019-05-29T22:08:20.718Z,1.20
2019-05-29T22:10:51.471Z,1.00
2019-05-29T22:13:21.455Z,1.03
2019-05-29T22:15:52.631Z,1.37
2019-05-29T22:18:22.750Z,1.47
2019-05-29T22:20:53.004Z,1.33
2019-05-29T22:23:22.891Z,1.30
2019-05-29T22:25:53.146Z,1.80
2019-05-29T22:28:23.051Z,1.60
2019-05-29T22:30:53.322Z,1.70
2019-05-29T22:33:23.406Z,1.70
2019-05-29T22:35:54.079Z,2.20
2019-05-29T22:38:24.502Z,1.40
2019-05-29T22:40:55.504Z,1.50
2019-05-29T22:43:25.507Z,1.60
2019-05-29T22:45:55.678Z,1.50
2019-05-29T22:48:25.539Z,1.40
2019-05-29T22:50:55.741Z,1.50
2019-05-29T22:53:26.475Z,1.40
2019-05-29T22:55:56.430Z,1.30
2019-05-29T22:58:26.412Z,1.10
2019-05-29T23:00:56.343Z,1.30
2019-05-29T23:03:26.257Z,1.40
2019-05-29T23:05:56.168Z,1.20
2019-05-29T23:08:26.151Z,1.40
2019-05-29T23:10:56.256Z,1.30
2019-05-29T23:13:26.105Z,1.30
2019-05-29T23:15:56.627Z,0.90
2019-05-29T23:18:26.634Z,1.13
2019-05-29T23:20:56.615Z,1.20
2019-05-29T23:23:26.443Z,1.17
2019-05-29T23:25:56.538Z,1.30
2019-05-29T23:28:26.406Z,1.13
2019-05-29T23:30:56.715Z,1.27
2019-05-29T23:33:26.670Z,1.43
2019-05-29T23:35:56.964Z,1.13
2019-05-29T23:38:26.895Z,1.10
2019-05-29T23:40:57.473Z,1.10
2019-05-29T23:43:27.511Z,1.30
2019-05-29T23:45:57.474Z,0.90
2019-05-29T23:48:27.411Z,1.10
2019-05-29T23:50:58.036Z,1.10
2019-05-29T23:53:28.033Z,0.83
2019-05-29T23:55:57.939Z,0.90
2019-05-29T23:58:27.871Z,1.00
